Skip Navigation LinksHome page > Weather > Current weather Skip Navigation Links

Current Weather

San Francisco International, San Francisco

For information only: do not use for flight planning or navigation.
Latest weather
Observation time Thursday, October 19, 2017 9:40 PM PDT
Local time Thursday, October 19, 2017 9:55 PM PDT
Flight conditions Marginal Visual Meteorological Conditions
Winds
Wind direction South (190°)
Wind speed 16 mph
Visibility 10 mi.
Sky condition
Ceiling 2,100 ft. broken clouds
Cloud layer few clouds 1,000 ft.
Cloud layer broken clouds 2,100 ft.
Cloud layer overcast 4,200 ft.
Temperature 63°F
Dewpoint 57°F
Altimeter 29.88 in.Hg
Derived measurements
Relative humidity 83%
Density altitude 518 ft.
Remarks
Special weather observation.
METAR SPUS81 KWBC 200444 SPECI KSFO 200440Z 19014KT 10SM FEW010 BKN021 OVC042 17/14 A2988

Settings

Location code

InnerDrive.Weather 4.0.6144.1 Release CLR 4.0.30319.36366
Copyright ©2015 Inner Drive Technology. All rights reserved. Portions Copyright ©1986-2015 David Braverman.

Find weather

Site navigation


Skip Navigation Links

Place info

Page info

PayPal - The safer, easier way to pay online!

Return home.

Copyright ©2017 Inner Drive Technology. Purveyors of fine, hand-crafted computer software. Page printed 2017-10-20T04:55:44 UTC.